TAF KBKW
AMD KBKW 090905Z 0909/1006 18004KT P6SM FEW250 FM091700 16008G14KT P6SM BKN250 FM100000 15010G20KT P6SM SKC FM100200 16009KT P6SM FEW250 FM100400 20007KT P6SM SCT090 WS020/23040KT=
METAR KBKW
WC KBKW
WS KBKW
WV KBKW